Terminal Aerodrome Forecast
Issued by NWS Kansas City/Pleasant Hill, MO

Home | Current Version | Previous Version | Text Only | Print | Product List | Glossary On
Versions: 1 2 3 4 5 6 7 8 9 10 11 12 13 14 15 16 17
487
FTUS43 KEAX 280520
TAFMCI
TAF
KMCI 280520Z 2806/2906 18016KT P6SM BKN200
     FM281400 19017G29KT P6SM SCT050
     FM290100 19013KT P6SM BKN050=

USA.gov is the U.S. government's official web portal to all federal, state and local government web resources and services.